Time;durP1;ratioP1;P1;durP2;ratioP2;P2;SDS_P1;SDS_P2;PMS_P1;PMS_P2;Temp;Humidity;BMP_temperature;BMP_pressure;BME280_temperature;BME280_humidity;BME280_pressure;Samples;Min_cycle;Max_cycle;Signal;HPM_P1;HPM_P2
2022/10/22 00:01:45;;;;;;;0.85;0.40;;;;;;;;;;5027737;28;20061;-60
2022/10/22 00:04:33;;;;;;;0.85;0.45;;;;;;;;;;5058774;28;20028;-60
2022/10/22 00:07:17;;;;;;;4.22;0.43;;;;;;;;;;5104891;28;20393;-60
2022/10/22 00:10:04;;;;;;;1.95;0.32;;;;;;;;;;5109785;28;20039;-60
2022/10/22 00:12:43;;;;;;;;;;;;;;;;;;;;;
2022/10/22 00:21:32;;;;;;;0.40;0.30;;;;;;;;;;5086952;28;20096;-60
2022/10/22 00:24:14;;;;;;;0.93;0.20;;;;;;;;;;5072661;28;20100;-60
2022/10/22 00:26:49;;;;;;;1.27;0.50;;;;;;;;;;5070126;28;20036;-60
2022/10/22 00:29:25;;;;;;;4.85;0.57;;;;;;;;;;5086998;28;20052;-60
2022/10/22 00:31:55;;;;;;;0.88;0.38;;;;;;;;;;5091798;28;20074;-60
2022/10/22 00:37:50;;;;;;;0.47;0.20;;;;;;;;;;5086525;28;20064;-60
2022/10/22 00:40:30;;;;;;;2.08;0.43;;;;;;;;;;5086810;28;20426;-60
2022/10/22 00:43:25;;;;;;;0.45;0.15;;;;;;;;;;5123012;28;20042;-60
2022/10/22 00:49:26;;;;;;;3.30;0.30;;;;;;;;;;5066536;28;20029;-60
2022/10/22 00:52:25;;;;;;;1.25;0.68;;;;;;;;;;5066580;28;20095;-60
2022/10/22 00:55:16;;;;;;;0.43;0.20;;;;;;;;;;5066617;28;20067;-60
2022/10/22 01:01:44;;;;;;;1.13;0.55;;;;;;;;;;5121732;27;20061;-60
2022/10/22 01:07:51;;;;;;;0.52;0.20;;;;;;;;;;5075537;28;20028;-60
2022/10/22 01:10:36;;;;;;;2.35;0.52;;;;;;;;;;5086703;28;20378;-60
2022/10/22 01:16:43;;;;;;;0.55;0.20;;;;;;;;;;5026643;28;20026;-60
2022/10/22 01:28:35;;;;;;;0.85;0.43;;;;;;;;;;5149417;27;19945;-60
2022/10/22 01:31:29;;;;;;;1.83;0.65;;;;;;;;;;5149426;27;20031;-60
2022/10/22 01:34:59;;;;;;;;;;;;;;;;;;;;;
2022/10/22 01:37:33;;;;;;;1.17;0.50;;;;;;;;;;5142114;27;20034;-60
2022/10/22 01:40:23;;;;;;;1.02;0.40;;;;;;;;;;5149496;27;20035;-60
2022/10/22 01:46:08;;;;;;;1.40;0.57;;;;;;;;;;5146302;27;20023;-60
2022/10/22 01:52:08;;;;;;;0.50;0.22;;;;;;;;;;5116924;27;20030;-60
2022/10/22 01:57:50;;;;;;;0.47;0.22;;;;;;;;;;5148292;27;19910;-60
2022/10/22 02:00:39;;;;;;;1.08;0.50;;;;;;;;;;5044839;28;20033;-60
2022/10/22 02:03:24;;;;;;;1.13;0.40;;;;;;;;;;5045298;28;20025;-60
2022/10/22 02:06:16;;;;;;;0.57;0.28;;;;;;;;;;5141881;27;20027;-60
2022/10/22 02:09:15;;;;;;;0.73;0.25;;;;;;;;;;5105733;28;20044;-60
2022/10/22 02:17:54;;;;;;;0.65;0.32;;;;;;;;;;5105824;28;20047;-60
2022/10/22 02:20:39;;;;;;;0.57;0.10;;;;;;;;;;5065095;28;20048;-60
2022/10/22 02:23:20;;;;;;;3.85;0.77;;;;;;;;;;5064801;28;20029;-60
2022/10/22 02:26:25;;;;;;;;;;;;;;;;;;;;;
2022/10/22 02:29:15;;;;;;;4.55;0.70;;;;;;;;;;5016834;28;20063;-60
2022/10/22 02:32:06;;;;;;;2.00;0.45;;;;;;;;;;5005050;28;20041;-60
2022/10/22 02:35:01;;;;;;;;;;;;;;;;;;;;;
2022/10/22 02:37:42;;;;;;;0.73;0.38;;;;;;;;;;5044621;28;20096;-60
2022/10/22 02:54:55;;;;;;;2.90;0.65;;;;;;;;;;5086823;28;20158;-60
2022/10/22 02:57:31;;;;;;;1.67;0.47;;;;;;;;;;5123092;27;20050;-60
2022/10/22 03:00:30;;;;;;;3.83;0.68;;;;;;;;;;5152488;27;20027;-60
2022/10/22 03:03:15;;;;;;;0.25;0.17;;;;;;;;;;5117954;27;20043;-60
2022/10/22 03:06:01;;;;;;;;;;;;;;;;;;;;;
2022/10/22 03:08:28;;;;;;;1.50;0.40;;;;;;;;;;5112177;27;20090;-60
2022/10/22 03:13:43;;;;;;;1.00;0.45;;;;;;;;;;5137779;27;20096;-60
2022/10/22 03:16:21;;;;;;;5.78;0.73;;;;;;;;;;5131213;27;20046;-60
2022/10/22 03:28:36;;;;;;;0.45;0.22;;;;;;;;;;5067765;28;20059;-60
2022/10/22 03:31:15;;;;;;;0.60;0.30;;;;;;;;;;5140936;27;20687;-60
2022/10/22 03:33:54;;;;;;;1.20;0.50;;;;;;;;;;5143399;27;20015;-60
2022/10/22 03:36:43;;;;;;;0.85;0.43;;;;;;;;;;5131559;27;20104;-60
2022/10/22 03:42:35;;;;;;;0.60;0.28;;;;;;;;;;5119350;27;20039;-60
2022/10/22 03:45:07;;;;;;;1.10;0.60;;;;;;;;;;5120335;27;20357;-60
2022/10/22 03:47:42;;;;;;;0.68;0.45;;;;;;;;;;5137392;27;20512;-60
2022/10/22 03:50:20;;;;;;;0.45;0.20;;;;;;;;;;5138664;27;20454;-60
2022/10/22 03:59:30;;;;;;;0.82;0.40;;;;;;;;;;5137537;27;20385;-60
2022/10/22 04:02:26;;;;;;;0.65;0.35;;;;;;;;;;5118455;27;20504;-60
2022/10/22 04:05:15;;;;;;;0.40;0.22;;;;;;;;;;5136582;27;20046;-60
2022/10/22 04:08:27;;;;;;;2.47;0.75;;;;;;;;;;5138145;27;20456;-60
2022/10/22 04:11:32;;;;;;;1.33;0.68;;;;;;;;;;5119487;27;20035;-60
2022/10/22 04:14:11;;;;;;;2.17;0.38;;;;;;;;;;5135072;27;20365;-59
2022/10/22 04:22:46;;;;;;;1.10;0.55;;;;;;;;;;5131225;27;20042;-59
2022/10/22 04:28:16;;;;;;;0.32;0.22;;;;;;;;;;5105333;27;20035;-59
2022/10/22 04:37:21;;;;;;;0.90;0.40;;;;;;;;;;5149956;27;20036;-59
2022/10/22 04:40:08;;;;;;;0.65;0.43;;;;;;;;;;5149285;27;20090;-59
2022/10/22 04:45:38;;;;;;;;;;;;;;;;;;5086875;28;20051;-59
2022/10/22 04:48:09;;;;;;;0.82;0.40;;;;;;;;;;5085186;28;19923;-59
2022/10/22 04:53:39;;;;;;;7.78;0.50;;;;;;;;;;5086260;28;19911;-59
2022/10/22 04:59:21;;;;;;;1.63;0.38;;;;;;;;;;5086826;28;20031;-59
2022/10/22 05:02:20;;;;;;;1.45;0.50;;;;;;;;;;5087012;28;20045;-59
2022/10/22 05:05:06;;;;;;;0.55;0.28;;;;;;;;;;5087138;28;20355;-59
2022/10/22 05:08:03;;;;;;;0.82;0.45;;;;;;;;;;5098040;27;20043;-59
2022/10/22 05:11:12;;;;;;;0.75;0.38;;;;;;;;;;5147855;27;20030;-59
2022/10/22 05:14:08;;;;;;;0.10;0.10;;;;;;;;;;5050580;27;20080;-59
2022/10/22 05:20:14;;;;;;;0.98;0.40;;;;;;;;;;5148844;27;20060;-59
2022/10/22 05:22:59;;;;;;;0.82;0.63;;;;;;;;;;5148965;27;20039;-59
2022/10/22 05:25:26;;;;;;;0.50;0.20;;;;;;;;;;5131019;27;20052;-59
2022/10/22 05:28:10;;;;;;;0.70;0.40;;;;;;;;;;5149323;27;20015;-59
2022/10/22 05:31:04;;;;;;;0.98;0.38;;;;;;;;;;5130486;27;20073;-59
2022/10/22 05:33:53;;;;;;;;;;;;;;;;;;;;;
2022/10/22 05:42:30;;;;;;;2.55;0.38;;;;;;;;;;5032824;28;20491;-59
2022/10/22 05:48:43;;;;;;;;;;;;;;;;;;;;;
2022/10/22 05:51:19;;;;;;;0.77;0.20;;;;;;;;;;5034147;28;20394;-59
2022/10/22 06:00:24;;;;;;;1.20;0.40;;;;;;;;;;5010340;28;20191;-59
2022/10/22 06:03:01;;;;;;;2.50;0.43;;;;;;;;;;5059578;28;20043;-59
2022/10/22 06:05:52;;;;;;;0.73;0.25;;;;;;;;;;5009996;28;20141;-59
2022/10/22 06:11:37;;;;;;;0.68;0.28;;;;;;;;;;5097377;28;20043;-59
2022/10/22 06:14:34;;;;;;;1.88;0.45;;;;;;;;;;5010528;28;20569;-59
2022/10/22 06:23:49;;;;;;;1.42;0.43;;;;;;;;;;5112996;28;20044;-59
2022/10/22 06:26:42;;;;;;;2.20;0.40;;;;;;;;;;5123774;28;20031;-59
2022/10/22 06:29:15;;;;;;;0.65;0.38;;;;;;;;;;5135855;28;20025;-59
2022/10/22 06:32:02;;;;;;;0.95;0.47;;;;;;;;;;5123743;28;20099;-59
2022/10/22 06:37:35;;;;;;;1.20;0.63;;;;;;;;;;5103231;28;20032;-60
2022/10/22 06:49:46;;;;;;;6.38;2.47;;;;;;;;;;5003200;28;20146;-59
2022/10/22 06:52:17;;;;;;;2.65;1.45;;;;;;;;;;5006129;28;20046;-59
2022/10/22 06:55:13;;;;;;;2.10;1.20;;;;;;;;;;5022799;28;20026;-59
2022/10/22 07:03:27;;;;;;;0.75;0.38;;;;;;;;;;5022704;28;20127;-59
2022/10/22 07:06:16;;;;;;;1.48;0.65;;;;;;;;;;5022928;28;20034;-59
2022/10/22 07:09:07;;;;;;;3.33;0.88;;;;;;;;;;5022804;28;20038;-59
2022/10/22 07:11:37;;;;;;;;;;;;;;;;;;5105280;28;20046;-59
2022/10/22 07:14:34;;;;;;;1.17;0.63;;;;;;;;;;5104348;28;19903;-59
2022/10/22 07:20:17;;;;;;;2.63;0.90;;;;;;;;;;5120069;28;20027;-59
2022/10/22 07:22:50;;;;;;;2.25;0.75;;;;;;;;;;5124108;28;20027;-59
2022/10/22 07:25:32;;;;;;;2.85;0.60;;;;;;;;;;5101171;28;20047;-59
2022/10/22 07:28:35;;;;;;;1.48;0.80;;;;;;;;;;5122516;28;20027;-58
2022/10/22 07:31:24;;;;;;;1.55;0.60;;;;;;;;;;5109233;28;20036;-58
2022/10/22 07:34:15;;;;;;;2.42;1.13;;;;;;;;;;5130958;28;20530;-58
2022/10/22 07:36:42;;;;;;;;;;;;;;;;;;5132578;28;20106;-58
2022/10/22 07:39:22;;;;;;;;;;;;;;;;;;;;;
2022/10/22 07:42:17;;;;;;;1.42;0.57;;;;;;;;;;5124920;28;20066;-58
2022/10/22 07:45:07;;;;;;;2.63;1.23;;;;;;;;;;5094809;28;20424;-58
2022/10/22 07:51:05;;;;;;;1.38;0.60;;;;;;;;;;5146554;27;20035;-58
2022/10/22 07:53:56;;;;;;;11.30;0.80;;;;;;;;;;5124815;27;20495;-58
2022/10/22 07:59:47;;;;;;;1.95;0.98;;;;;;;;;;5152533;27;20057;-58
2022/10/22 08:02:26;;;;;;;0.63;0.32;;;;;;;;;;5140526;27;20508;-58
2022/10/22 08:05:12;;;;;;;0.85;0.38;;;;;;;;;;5152035;27;20353;-58
2022/10/22 08:07:48;;;;;;;1.17;0.50;;;;;;;;;;5126415;27;20027;-58
2022/10/22 08:10:21;;;;;;;1.67;0.55;;;;;;;;;;5151860;27;20035;-58
2022/10/22 08:13:25;;;;;;;;;;;;;;;;;;;;;
2022/10/22 08:16:16;;;;;;;1.42;0.45;;;;;;;;;;5151771;27;20067;-58
2022/10/22 08:21:54;;;;;;;1.02;0.52;;;;;;;;;;5151610;27;19934;-58
2022/10/22 08:24:59;;;;;;;2.17;0.73;;;;;;;;;;5151529;27;20023;-58
2022/10/22 08:28:03;;;;;;;0.60;0.30;;;;;;;;;;5121524;27;20098;-58
2022/10/22 08:30:55;;;;;;;0.98;0.75;;;;;;;;;;5121872;27;20056;-58
2022/10/22 08:33:44;;;;;;;1.10;0.50;;;;;;;;;;5136767;27;20392;-58
2022/10/22 08:36:31;;;;;;;0.68;0.35;;;;;;;;;;5150629;27;20019;-58
2022/10/22 08:41:59;;;;;;;3.15;0.73;;;;;;;;;;5135991;27;20099;-58
2022/10/22 08:44:49;;;;;;;1.88;0.95;;;;;;;;;;5148985;27;20032;-58
2022/10/22 08:50:48;;;;;;;1.58;0.75;;;;;;;;;;5102402;28;20035;-58
2022/10/22 08:53:46;;;;;;;1.80;0.85;;;;;;;;;;5115864;28;20085;-58
2022/10/22 08:56:21;;;;;;;0.93;0.40;;;;;;;;;;5116236;28;20024;-58
2022/10/22 08:59:12;;;;;;;1.25;0.63;;;;;;;;;;5093172;28;20454;-58
2022/10/22 09:08:20;;;;;;;1.67;0.60;;;;;;;;;;5115630;28;20122;-58
2022/10/22 09:11:11;;;;;;;3.53;0.85;;;;;;;;;;5072787;28;20098;-58
2022/10/22 09:14:14;;;;;;;1.35;0.60;;;;;;;;;;5055543;28;20528;-58
2022/10/22 09:20:25;;;;;;;1.33;0.70;;;;;;;;;;5082661;28;20054;-58
2022/10/22 09:23:00;;;;;;;2.30;0.60;;;;;;;;;;5092786;28;20583;-58
2022/10/22 09:28:37;;;;;;;1.55;0.70;;;;;;;;;;5032975;28;20529;-61
2022/10/22 09:31:16;;;;;;;1.10;0.40;;;;;;;;;;5016838;28;20151;-58
2022/10/22 09:37:07;;;;;;;;;;;;;;;;;;;;;
2022/10/22 09:40:05;;;;;;;;;;;;;;;;;;;;;
2022/10/22 09:42:42;;;;;;;1.25;0.50;;;;;;;;;;5094697;28;20058;-58
2022/10/22 09:45:20;;;;;;;1.20;0.60;;;;;;;;;;5072514;28;20043;-58
2022/10/22 09:48:25;;;;;;;;;;;;;;;;;;;;;
2022/10/22 09:54:31;;;;;;;0.95;0.50;;;;;;;;;;5079224;28;20465;-58
2022/10/22 09:57:20;;;;;;;1.27;0.50;;;;;;;;;;5092380;28;20462;-58
2022/10/22 10:03:03;;;;;;;1.77;0.85;;;;;;;;;;5073201;28;20505;-58
2022/10/22 10:05:36;;;;;;;1.13;0.57;;;;;;;;;;5058082;28;20509;-58
2022/10/22 10:11:51;;;;;;;2.30;0.65;;;;;;;;;;5075986;28;20032;-58
2022/10/22 10:15:01;;;;;;;1.77;0.65;;;;;;;;;;5090062;28;20561;-58
2022/10/22 10:17:29;;;;;;;5.13;0.73;;;;;;;;;;4975899;28;20037;-58
2022/10/22 10:20:19;;;;;;;1.83;0.65;;;;;;;;;;4992870;28;20030;-58
2022/10/22 10:23:04;;;;;;;4.03;1.10;;;;;;;;;;4972783;28;20049;-58
2022/10/22 10:25:50;;;;;;;1.15;0.52;;;;;;;;;;4957128;28;20135;-58
2022/10/22 10:28:44;;;;;;;1.48;0.57;;;;;;;;;;4973790;28;20030;-58
2022/10/22 10:31:38;;;;;;;0.75;0.40;;;;;;;;;;5020730;28;20119;-58
2022/10/22 10:34:41;;;;;;;1.15;0.65;;;;;;;;;;5134868;28;20106;-58
2022/10/22 10:37:33;;;;;;;1.05;0.50;;;;;;;;;;5117303;28;20052;-58
2022/10/22 10:44:00;;;;;;;3.22;0.60;;;;;;;;;;5134602;28;20113;-58
2022/10/22 10:46:49;;;;;;;1.40;0.60;;;;;;;;;;5129643;28;20031;-59
2022/10/22 10:49:54;;;;;;;1.00;0.65;;;;;;;;;;5134530;27;20051;-59
2022/10/22 10:52:37;;;;;;;2.58;0.77;;;;;;;;;;5031560;28;20496;-59
2022/10/22 10:55:46;;;;;;;2.88;0.50;;;;;;;;;;5061867;28;20039;-59
2022/10/22 10:58:42;;;;;;;2.05;0.70;;;;;;;;;;5037541;28;20030;-59
2022/10/22 11:01:28;;;;;;;2.13;0.60;;;;;;;;;;5135511;28;20417;-59
2022/10/22 11:04:39;;;;;;;1.77;0.82;;;;;;;;;;5099432;28;20023;-59
2022/10/22 11:10:25;;;;;;;1.75;0.65;;;;;;;;;;5123556;27;20079;-59
2022/10/22 11:16:27;;;;;;;4.95;1.00;;;;;;;;;;5138953;27;20035;-59
2022/10/22 11:19:25;;;;;;;;;;;;;;;;;;;;;
2022/10/22 11:22:19;;;;;;;2.75;0.88;;;;;;;;;;5138629;27;20069;-59
2022/10/22 11:28:28;;;;;;;1.73;0.60;;;;;;;;;;5123109;27;20056;-58
2022/10/22 11:31:14;;;;;;;5.32;0.70;;;;;;;;;;5047851;27;20077;-59
2022/10/22 11:33:45;;;;;;;2.25;0.70;;;;;;;;;;5138631;27;20473;-59
2022/10/22 11:36:32;;;;;;;;;;;;;;;;;;5139789;27;20030;-59
2022/10/22 11:39:24;;;;;;;3.13;0.70;;;;;;;;;;5138475;27;19904;-59
2022/10/22 11:42:01;;;;;;;0.55;0.40;;;;;;;;;;5137270;27;20043;-59
2022/10/22 11:45:19;;;;;;;2.72;0.77;;;;;;;;;;5139070;27;20027;-59
2022/10/22 11:48:03;;;;;;;3.38;0.52;;;;;;;;;;5063337;27;20039;-59
2022/10/22 11:51:09;;;;;;;2.90;0.40;;;;;;;;;;5119795;27;20074;-58
2022/10/22 11:54:17;;;;;;;1.25;0.60;;;;;;;;;;5137946;27;20027;-59
2022/10/22 11:57:09;;;;;;;0.88;0.30;;;;;;;;;;5129810;27;20473;-59
2022/10/22 11:59:43;;;;;;;1.48;0.35;;;;;;;;;;5095601;28;20056;-59
2022/10/22 12:08:53;;;;;;;3.67;0.80;;;;;;;;;;5063978;28;20032;-59
2022/10/22 12:15:04;;;;;;;;;;;;;;;;;;;;;
2022/10/22 12:17:33;;;;;;;1.63;0.60;;;;;;;;;;5089613;28;20127;-59
2022/10/22 12:20:35;;;;;;;2.58;0.98;;;;;;;;;;5095667;28;20417;-59
2022/10/22 12:23:40;;;;;;;;;;;;;;;;;;;;;
2022/10/22 12:26:28;;;;;;;5.07;0.68;;;;;;;;;;5063174;28;20036;-59
2022/10/22 12:35:28;;;;;;;1.52;0.38;;;;;;;;;;5136923;27;20389;-59
2022/10/22 12:38:25;;;;;;;;;;;;;;;;;;;;;
2022/10/22 12:44:35;;;;;;;;;;;;;;;;;;5033568;28;20159;-59
2022/10/22 12:47:27;;;;;;;3.38;0.50;;;;;;;;;;5032210;28;19916;-59
2022/10/22 12:53:27;;;;;;;0.70;0.32;;;;;;;;;;5040421;28;20044;-58
2022/10/22 12:56:34;;;;;;;2.83;1.00;;;;;;;;;;5023323;28;20123;-59
2022/10/22 13:05:25;;;;;;;1.02;0.60;;;;;;;;;;5009597;28;20048;-59
2022/10/22 13:11:19;;;;;;;;;;;;;;;;;;;;;
2022/10/22 13:14:18;;;;;;;2.95;0.82;;;;;;;;;;5136324;27;20015;-59
2022/10/22 13:17:04;;;;;;;0.95;0.38;;;;;;;;;;5118659;27;20484;-59
2022/10/22 13:20:15;;;;;;;;;;;;;;;;;;;;;
2022/10/22 13:32:22;;;;;;;0.63;0.38;;;;;;;;;;5136182;27;20039;-59
2022/10/22 13:35:11;;;;;;;1.10;0.35;;;;;;;;;;5083905;27;20484;-59
2022/10/22 13:38:12;;;;;;;5.10;0.60;;;;;;;;;;5135835;27;20023;-59
2022/10/22 13:40:59;;;;;;;1.95;0.80;;;;;;;;;;5118865;27;20031;-59
2022/10/22 13:43:53;;;;;;;1.80;0.68;;;;;;;;;;5135781;27;20065;-59
2022/10/22 13:50:16;;;;;;;0.63;0.13;;;;;;;;;;5032254;28;20452;-59
2022/10/22 13:56:26;;;;;;;2.55;0.82;;;;;;;;;;5007469;28;20037;-59
2022/10/22 14:04:55;;;;;;;1.42;0.52;;;;;;;;;;4983626;28;20386;-59
2022/10/22 14:07:44;;;;;;;1.52;0.45;;;;;;;;;;5069475;28;20035;-59
2022/10/22 14:10:42;;;;;;;1.08;0.45;;;;;;;;;;5084354;28;20032;-59
2022/10/22 14:16:32;;;;;;;1.58;0.47;;;;;;;;;;5115007;28;20074;-59
2022/10/22 14:19:37;;;;;;;3.38;0.80;;;;;;;;;;5113992;28;20560;-59
2022/10/22 14:22:25;;;;;;;4.05;0.65;;;;;;;;;;5091990;28;20040;-59
2022/10/22 14:25:01;;;;;;;1.75;0.55;;;;;;;;;;5095898;28;20028;-59
2022/10/22 14:28:02;;;;;;;1.80;0.40;;;;;;;;;;5117426;28;20023;-59
2022/10/22 14:30:33;;;;;;;0.75;0.35;;;;;;;;;;5067001;28;20027;-59
2022/10/22 14:33:41;;;;;;;2.08;0.52;;;;;;;;;;5114176;28;20385;-59
2022/10/22 14:36:28;;;;;;;2.13;0.80;;;;;;;;;;5031906;28;20039;-59
2022/10/22 14:39:30;;;;;;;1.85;0.80;;;;;;;;;;5098225;28;20046;-59
2022/10/22 14:42:22;;;;;;;2.13;0.73;;;;;;;;;;5013787;28;20041;-59
2022/10/22 14:45:14;;;;;;;2.53;0.65;;;;;;;;;;5116539;28;20023;-59
2022/10/22 14:48:08;;;;;;;;;;;;;;;;;;;;;
2022/10/22 14:51:04;;;;;;;3.33;0.63;;;;;;;;;;5019192;28;20057;-59
2022/10/22 14:54:06;;;;;;;2.28;0.65;;;;;;;;;;5055186;28;20441;-59
2022/10/22 14:56:36;;;;;;;1.85;0.90;;;;;;;;;;5038615;28;20490;-59
2022/10/22 15:02:25;;;;;;;1.80;0.73;;;;;;;;;;5054633;28;20040;-59
2022/10/22 15:08:25;;;;;;;4.20;1.00;;;;;;;;;;5055215;28;20040;-58
2022/10/22 15:11:23;;;;;;;2.55;0.82;;;;;;;;;;5037688;28;20033;-59
2022/10/22 15:13:49;;;;;;;0.57;0.20;;;;;;;;;;5054888;28;20116;-59
2022/10/22 15:16:33;;;;;;;2.28;0.60;;;;;;;;;;5015178;28;20080;-59
2022/10/22 15:19:25;;;;;;;1.10;0.65;;;;;;;;;;5048326;28;20418;-59
2022/10/22 15:22:04;;;;;;;3.67;0.82;;;;;;;;;;5074595;28;20044;-59
2022/10/22 15:25:00;;;;;;;2.28;0.98;;;;;;;;;;5075005;28;20471;-59
2022/10/22 15:27:45;;;;;;;3.50;0.77;;;;;;;;;;5065592;28;20032;-59
2022/10/22 15:33:27;;;;;;;1.40;0.50;;;;;;;;;;5089643;28;20377;-59
2022/10/22 15:36:02;;;;;;;1.52;0.40;;;;;;;;;;5095789;28;20024;-59
2022/10/22 15:38:53;;;;;;;;;;;;;;;;;;;;;
2022/10/22 15:44:55;;;;;;;3.97;0.55;;;;;;;;;;5054866;28;20025;-59
2022/10/22 15:47:21;;;;;;;3.45;0.88;;;;;;;;;;5087118;28;20386;-59
2022/10/22 15:53:06;;;;;;;2.25;0.60;;;;;;;;;;5103470;27;20061;-59
2022/10/22 15:56:05;;;;;;;2.97;0.90;;;;;;;;;;5119518;27;20062;-59
2022/10/22 15:59:06;;;;;;;1.02;0.52;;;;;;;;;;5119465;27;20058;-59
2022/10/22 16:02:02;;;;;;;1.63;0.60;;;;;;;;;;5120150;27;20028;-59
2022/10/22 16:04:43;;;;;;;2.00;1.02;;;;;;;;;;5119446;27;20460;-59
2022/10/22 16:10:33;;;;;;;1.95;0.85;;;;;;;;;;5094893;28;20101;-59
2022/10/22 16:13:51;;;;;;;3.28;1.23;;;;;;;;;;5101380;27;20099;-59
2022/10/22 16:16:27;;;;;;;3.97;1.45;;;;;;;;;;5131510;27;20027;-59
2022/10/22 16:19:15;;;;;;;5.47;2.28;;;;;;;;;;5138833;27;20031;-59
2022/10/22 16:22:12;;;;;;;4.53;1.98;;;;;;;;;;5137554;27;20031;-59
2022/10/22 16:24:46;;;;;;;3.03;1.40;;;;;;;;;;5120253;27;20404;-59
2022/10/22 16:27:21;;;;;;;5.30;2.05;;;;;;;;;;5137190;27;20498;-59
2022/10/22 16:30:06;;;;;;;8.10;1.95;;;;;;;;;;5119571;27;20544;-59
2022/10/22 16:32:56;;;;;;;2.22;1.10;;;;;;;;;;5119141;27;20076;-59
2022/10/22 16:35:44;;;;;;;2.03;1.10;;;;;;;;;;5124958;27;20027;-59
2022/10/22 16:38:16;;;;;;;1.70;1.15;;;;;;;;;;5144689;27;20028;-59
2022/10/22 16:41:06;;;;;;;2.70;1.27;;;;;;;;;;5118940;27;20023;-59
2022/10/22 16:44:01;;;;;;;;;;;;;;;;;;;;;
2022/10/22 16:49:32;;;;;;;;;;;;;;;;;;;;;
2022/10/22 16:55:10;;;;;;;4.22;1.48;;;;;;;;;;5122107;27;20089;-59
2022/10/22 16:57:54;;;;;;;4.80;1.48;;;;;;;;;;5137031;27;20051;-59
2022/10/22 17:00:52;;;;;;;3.60;1.30;;;;;;;;;;5117321;27;20054;-58
2022/10/22 17:03:44;;;;;;;4.03;2.13;;;;;;;;;;5136339;27;20122;-59
2022/10/22 17:06:33;;;;;;;2.75;1.13;;;;;;;;;;5137393;27;20445;-59
2022/10/22 17:09:19;;;;;;;2.25;1.08;;;;;;;;;;5137316;27;20061;-59
2022/10/22 17:11:51;;;;;;;4.43;1.38;;;;;;;;;;5137112;27;20031;-59
2022/10/22 17:14:50;;;;;;;3.28;1.65;;;;;;;;;;5136427;27;20023;-59
2022/10/22 17:20:32;;;;;;;3.72;1.77;;;;;;;;;;5135849;27;20464;-59
2022/10/22 17:23:38;;;;;;;5.80;2.00;;;;;;;;;;5136544;27;20057;-59
2022/10/22 17:26:38;;;;;;;2.63;1.42;;;;;;;;;;5136512;27;20512;-59
2022/10/22 17:32:18;;;;;;;6.60;2.72;;;;;;;;;;5124782;27;20066;-59
2022/10/22 17:38:23;;;;;;;3.60;2.20;;;;;;;;;;5111358;27;20030;-59
2022/10/22 17:40:59;;;;;;;2.67;1.65;;;;;;;;;;5136645;27;20019;-59
2022/10/22 17:50:26;;;;;;;4.78;2.90;;;;;;;;;;5072524;28;20108;-59
2022/10/22 17:53:16;;;;;;;7.32;2.60;;;;;;;;;;5085175;28;20094;-59
2022/10/22 17:58:53;;;;;;;4.63;2.42;;;;;;;;;;5118334;27;20031;-59
2022/10/22 18:02:05;;;;;;;9.88;3.70;;;;;;;;;;5136067;27;20350;-59
2022/10/22 18:04:38;;;;;;;7.40;5.90;;;;;;;;;;5033050;28;20025;-59
2022/10/22 18:07:34;;;;;;;4.32;2.45;;;;;;;;;;5016048;28;20479;-59
2022/10/22 18:10:28;;;;;;;;;;;;;;;;;;;;;
2022/10/22 18:13:21;;;;;;;8.00;1.58;;;;;;;;;;5053075;28;20043;-59
2022/10/22 18:16:10;;;;;;;2.25;1.40;;;;;;;;;;5098691;27;20472;-59
2022/10/22 18:19:04;;;;;;;5.07;2.55;;;;;;;;;;5116706;27;20054;-59
2022/10/22 18:22:06;;;;;;;5.93;2.03;;;;;;;;;;5136292;27;20026;-59
2022/10/22 18:24:56;;;;;;;4.07;2.17;;;;;;;;;;5115727;27;20035;-59
2022/10/22 18:27:40;;;;;;;;;;;;;;;;;;;;;
2022/10/22 18:30:22;;;;;;;2.55;1.55;;;;;;;;;;5135429;27;20083;-59
2022/10/22 18:39:03;;;;;;;6.30;2.85;;;;;;;;;;5135685;28;20039;-59
2022/10/22 18:41:48;;;;;;;3.30;2.30;;;;;;;;;;5138096;28;20030;-59
2022/10/22 18:44:40;;;;;;;6.00;4.45;;;;;;;;;;5119188;28;20469;-59
2022/10/22 18:47:37;;;;;;;4.63;1.83;;;;;;;;;;5117261;28;20030;-59
2022/10/22 18:50:10;;;;;;;3.85;2.83;;;;;;;;;;5136466;28;20081;-59
2022/10/22 18:52:53;;;;;;;9.43;4.03;;;;;;;;;;5116792;28;20047;-59
2022/10/22 18:55:30;;;;;;;9.35;5.10;;;;;;;;;;5140609;28;20087;-59
2022/10/22 19:01:28;;;;;;;9.65;6.18;;;;;;;;;;5095123;28;20042;-59
2022/10/22 19:04:17;;;;;;;12.48;6.53;;;;;;;;;;5133652;28;20138;-59
2022/10/22 19:07:03;;;;;;;11.63;6.87;;;;;;;;;;5115480;28;20039;-59
2022/10/22 19:09:53;;;;;;;11.35;7.65;;;;;;;;;;5034477;28;20032;-59
2022/10/22 19:12:20;;;;;;;;;;;;;;;;;;5134829;28;20068;-59
2022/10/22 19:15:02;;;;;;;13.52;8.90;;;;;;;;;;5115809;28;19952;-59
2022/10/22 19:18:05;;;;;;;13.43;8.68;;;;;;;;;;5135078;28;20445;-59
2022/10/22 19:20:54;;;;;;;;;;;;;;;;;;;;;
2022/10/22 19:23:40;;;;;;;15.45;7.63;;;;;;;;;;5058471;28;20046;-59
2022/10/22 19:38:12;;;;;;;13.00;7.47;;;;;;;;;;5070768;28;20039;-59
2022/10/22 19:41:16;;;;;;;13.82;8.07;;;;;;;;;;5138619;27;20396;-59
2022/10/22 19:47:05;;;;;;;9.75;7.80;;;;;;;;;;5127027;27;20031;-59
2022/10/22 19:49:59;;;;;;;18.70;8.65;;;;;;;;;;5138962;27;20460;-59
2022/10/22 19:52:40;;;;;;;21.55;10.45;;;;;;;;;;5136112;27;20039;-59
2022/10/22 19:55:26;;;;;;;13.88;9.23;;;;;;;;;;5138691;27;20034;-59
2022/10/22 19:58:03;;;;;;;11.75;9.15;;;;;;;;;;5118280;27;20203;-59
2022/10/22 20:00:47;;;;;;;13.23;8.00;;;;;;;;;;5138003;27;20023;-59
2022/10/22 20:03:25;;;;;;;8.45;6.75;;;;;;;;;;5138466;27;20023;-59
2022/10/22 20:11:56;;;;;;;7.40;5.68;;;;;;;;;;5126236;27;20031;-59
2022/10/22 20:15:17;;;;;;;8.43;5.05;;;;;;;;;;5117302;27;20533;-59
2022/10/22 20:17:48;;;;;;;7.97;5.15;;;;;;;;;;5132675;27;20053;-59
2022/10/22 20:20:38;;;;;;;7.72;4.18;;;;;;;;;;5138561;27;20438;-59
2022/10/22 20:23:13;;;;;;;5.40;3.10;;;;;;;;;;5137699;27;20114;-59
2022/10/22 20:29:11;;;;;;;5.75;3.25;;;;;;;;;;5138342;27;20034;-59
2022/10/22 20:31:43;;;;;;;5.63;3.53;;;;;;;;;;5137722;27;20055;-59
2022/10/22 20:34:18;;;;;;;5.05;2.90;;;;;;;;;;5137606;27;20030;-59
2022/10/22 20:36:59;;;;;;;6.18;3.17;;;;;;;;;;5118980;27;20031;-59
2022/10/22 20:39:40;;;;;;;;;;;;;;;;;;5121343;27;20023;-59
2022/10/22 20:42:38;;;;;;;4.60;3.03;;;;;;;;;;5137018;27;19950;-59
2022/10/22 20:45:31;;;;;;;4.72;2.78;;;;;;;;;;5033959;28;20040;-59
2022/10/22 20:48:47;;;;;;;5.15;2.90;;;;;;;;;;5067104;27;20084;-59
2022/10/22 20:54:43;;;;;;;3.42;2.75;;;;;;;;;;5115822;28;20113;-59
2022/10/22 20:57:21;;;;;;;5.07;3.50;;;;;;;;;;5116272;28;20162;-59
2022/10/22 21:00:07;;;;;;;4.15;2.60;;;;;;;;;;5098603;28;20030;-59
2022/10/22 21:03:01;;;;;;;5.10;3.35;;;;;;;;;;5125347;28;20243;-59
2022/10/22 21:05:30;;;;;;;6.82;3.38;;;;;;;;;;5125569;28;20035;-59
2022/10/22 21:08:18;;;;;;;3.88;2.65;;;;;;;;;;5101614;28;20032;-59
2022/10/22 21:10:57;;;;;;;4.80;2.10;;;;;;;;;;5126283;28;20028;-59
2022/10/22 21:16:57;;;;;;;5.13;3.55;;;;;;;;;;5062141;28;20027;-59
2022/10/22 21:19:57;;;;;;;4.20;2.45;;;;;;;;;;5047498;28;20036;-59
2022/10/22 21:22:44;;;;;;;6.22;3.00;;;;;;;;;;5125312;28;20039;-59
2022/10/22 21:25:58;;;;;;;4.35;2.95;;;;;;;;;;5125881;28;20043;-59
2022/10/22 21:28:43;;;;;;;6.53;3.17;;;;;;;;;;5067820;28;20023;-59
2022/10/22 21:31:27;;;;;;;;;;;;;;;;;;;;;
2022/10/22 21:34:24;;;;;;;4.03;2.58;;;;;;;;;;5124687;28;20473;-59
2022/10/22 21:37:32;;;;;;;;;;;;;;;;;;;;;
2022/10/22 21:40:14;;;;;;;4.32;3.10;;;;;;;;;;5124823;28;20115;-59
2022/10/22 21:43:19;;;;;;;3.92;2.90;;;;;;;;;;5125233;28;20028;-59
2022/10/22 21:46:10;;;;;;;4.40;2.88;;;;;;;;;;5123860;28;20034;-59
2022/10/22 21:49:04;;;;;;;5.22;3.03;;;;;;;;;;5125165;28;20050;-59
2022/10/22 21:51:55;;;;;;;4.50;3.03;;;;;;;;;;5123477;28;20081;-59
2022/10/22 21:57:42;;;;;;;4.20;3.03;;;;;;;;;;5041961;28;20133;-59
2022/10/22 22:00:26;;;;;;;4.07;2.97;;;;;;;;;;5120345;28;20057;-59
2022/10/22 22:03:18;;;;;;;3.10;2.30;;;;;;;;;;5104788;28;20595;-59
2022/10/22 22:09:20;;;;;;;4.75;3.25;;;;;;;;;;5119841;28;20032;-59
2022/10/22 22:11:47;;;;;;;6.60;3.65;;;;;;;;;;5062257;28;20032;-59
2022/10/22 22:17:21;;;;;;;4.30;3.30;;;;;;;;;;5011290;28;20048;-59
2022/10/22 22:20:12;;;;;;;3.67;3.30;;;;;;;;;;5102020;28;20036;-59
2022/10/22 22:23:10;;;;;;;;;;;;;;;;;;;;;
2022/10/22 22:25:56;;;;;;;10.05;3.67;;;;;;;;;;5123881;28;20443;-59
2022/10/22 22:28:28;;;;;;;4.63;2.83;;;;;;;;;;5124547;28;20028;-59
2022/10/22 22:31:20;;;;;;;4.47;3.03;;;;;;;;;;5124184;28;20020;-59
2022/10/22 22:34:37;;;;;;;;;;;;;;;;;;;;;
2022/10/22 22:37:26;;;;;;;5.22;3.00;;;;;;;;;;5110350;28;20114;-59
2022/10/22 22:40:29;;;;;;;5.25;3.22;;;;;;;;;;5089295;28;20397;-59
2022/10/22 22:46:44;;;;;;;3.60;3.17;;;;;;;;;;5041216;28;20030;-59
2022/10/22 22:49:22;;;;;;;4.05;3.17;;;;;;;;;;5041365;28;20022;-59
2022/10/22 22:52:18;;;;;;;5.47;2.70;;;;;;;;;;5041776;28;20082;-59
2022/10/22 22:55:00;;;;;;;7.13;3.30;;;;;;;;;;5115784;28;20126;-59
2022/10/22 23:00:53;;;;;;;3.10;2.40;;;;;;;;;;5138940;28;20088;-59
2022/10/22 23:03:39;;;;;;;5.68;3.28;;;;;;;;;;5147265;27;20110;-59
2022/10/22 23:06:24;;;;;;;3.88;2.65;;;;;;;;;;5130634;27;20023;-59
2022/10/22 23:09:21;;;;;;;3.83;2.88;;;;;;;;;;5085300;28;20106;-59
2022/10/22 23:11:50;;;;;;;4.38;2.80;;;;;;;;;;5068071;28;20441;-59
2022/10/22 23:14:41;;;;;;;4.40;3.13;;;;;;;;;;5084969;28;20059;-59
2022/10/22 23:19:59;;;;;;;4.00;2.65;;;;;;;;;;5085810;28;20524;-59
2022/10/22 23:22:46;;;;;;;7.53;3.00;;;;;;;;;;5084311;28;20037;-59
2022/10/22 23:28:12;;;;;;;3.80;2.67;;;;;;;;;;5085328;28;20051;-59
2022/10/22 23:30:59;;;;;;;4.70;3.35;;;;;;;;;;5067899;28;20035;-59